createdAt,value
2019-03-20T00:00:41.016Z,3.97
2019-03-20T00:01:49.001Z,3.90
2019-03-20T00:02:56.991Z,3.83
2019-03-20T00:04:05.571Z,3.84
2019-03-20T00:05:13.967Z,3.87
2019-03-20T00:06:22.201Z,3.74
2019-03-20T00:07:30.186Z,3.74
2019-03-20T00:08:38.089Z,3.74
2019-03-20T00:09:46.233Z,3.80
2019-03-20T00:10:54.480Z,3.74
2019-03-20T00:12:02.574Z,3.74
2019-03-20T00:13:10.837Z,3.79
2019-03-20T00:14:18.950Z,3.78
2019-03-20T00:15:26.829Z,3.72
2019-03-20T00:16:34.938Z,3.70
2019-03-20T00:17:42.980Z,3.67
2019-03-20T00:18:50.977Z,3.62
2019-03-20T00:19:58.999Z,3.47
2019-03-20T00:21:07.053Z,3.52
2019-03-20T00:22:15.033Z,3.43
2019-03-20T00:23:23.148Z,3.46
2019-03-20T00:24:31.121Z,3.41
2019-03-20T00:25:39.018Z,3.41
2019-03-20T00:26:47.136Z,3.42
2019-03-20T00:27:55.089Z,3.50
2019-03-20T00:29:03.051Z,3.56
2019-03-20T00:30:19.310Z,3.53
2019-03-20T00:31:27.178Z,3.55
2019-03-20T00:32:35.430Z,3.53
2019-03-20T00:33:43.757Z,3.42
2019-03-20T00:35:00.561Z,3.34
2019-03-20T00:36:01.256Z,3.36
2019-03-20T00:37:09.481Z,3.43
2019-03-20T00:38:17.483Z,3.50
2019-03-20T00:39:25.334Z,3.55
2019-03-20T00:40:33.315Z,3.59
2019-03-20T00:41:41.401Z,3.63
2019-03-20T00:42:49.419Z,3.67
2019-03-20T00:43:57.344Z,3.68
2019-03-20T00:45:07.840Z,3.70
2019-03-20T00:46:15.904Z,3.45
2019-03-20T00:47:23.896Z,3.44
2019-03-20T00:48:31.976Z,3.48
2019-03-20T00:49:40.044Z,3.50
2019-03-20T00:50:48.124Z,3.56
2019-03-20T00:51:56.234Z,3.59
2019-03-20T00:53:04.645Z,3.60
2019-03-20T00:54:12.614Z,3.67
2019-03-20T00:55:21.204Z,3.68
2019-03-20T00:56:29.167Z,3.66
2019-03-20T00:57:37.173Z,3.67
2019-03-20T00:58:45.021Z,3.72
2019-03-20T00:59:52.910Z,3.72
2019-03-20T01:01:01.092Z,3.65
2019-03-20T01:02:09.002Z,3.59
2019-03-20T01:03:17.154Z,3.57
2019-03-20T01:04:25.172Z,3.56
2019-03-20T01:05:33.318Z,3.58
2019-03-20T01:06:41.364Z,3.59
2019-03-20T01:07:49.768Z,3.65
2019-03-20T01:08:57.972Z,3.68
2019-03-20T01:10:10.585Z,3.71
2019-03-20T01:11:18.718Z,3.72
2019-03-20T01:12:27.141Z,3.75
2019-03-20T01:13:35.090Z,3.78
2019-03-20T01:14:43.041Z,3.71
2019-03-20T01:15:51.197Z,3.64
2019-03-20T01:16:59.027Z,3.54
2019-03-20T01:18:07.141Z,3.54
2019-03-20T01:19:15.384Z,3.59
2019-03-20T01:20:24.814Z,3.63
2019-03-20T01:21:32.766Z,3.64
2019-03-20T01:22:40.602Z,3.66
2019-03-20T01:23:48.560Z,3.68
2019-03-20T01:24:56.490Z,3.70
2019-03-20T01:26:04.678Z,3.62
2019-03-20T01:27:13.168Z,3.63
2019-03-20T01:28:21.184Z,3.63
2019-03-20T01:29:29.158Z,3.58
2019-03-20T01:30:37.694Z,3.62
2019-03-20T01:31:45.741Z,3.67
2019-03-20T01:32:53.711Z,3.72
2019-03-20T01:34:01.706Z,3.73
2019-03-20T01:35:09.872Z,3.77
2019-03-20T01:36:18.272Z,3.76
2019-03-20T01:37:26.634Z,3.71
2019-03-20T01:38:34.786Z,3.61
2019-03-20T01:39:43.261Z,3.60
2019-03-20T01:40:51.454Z,3.56
2019-03-20T01:41:59.684Z,3.49
2019-03-20T01:43:07.938Z,3.51
2019-03-20T01:44:16.252Z,3.56
2019-03-20T01:45:24.251Z,3.55
2019-03-20T01:46:32.437Z,3.56
2019-03-20T01:47:40.397Z,3.61
2019-03-20T01:48:48.462Z,3.55
2019-03-20T01:49:56.541Z,3.58
2019-03-20T01:51:19.707Z,3.60
2019-03-20T01:52:27.717Z,3.62
2019-03-20T01:53:35.836Z,3.66
2019-03-20T01:54:43.651Z,3.69
2019-03-20T01:55:51.521Z,3.59
2019-03-20T01:56:59.471Z,3.57
2019-03-20T01:58:07.595Z,3.58
2019-03-20T01:59:15.707Z,3.58
2019-03-20T02:00:23.904Z,3.63
2019-03-20T02:01:31.850Z,3.59
2019-03-20T02:02:40.153Z,3.58
2019-03-20T02:03:48.378Z,3.53
2019-03-20T02:04:56.651Z,3.47
2019-03-20T02:06:04.761Z,3.45
2019-03-20T02:07:12.779Z,3.45
2019-03-20T02:08:20.851Z,3.48
2019-03-20T02:09:28.955Z,3.49
2019-03-20T02:10:37.043Z,3.50
2019-03-20T02:11:45.133Z,3.49
2019-03-20T02:12:53.139Z,3.42
2019-03-20T02:14:01.081Z,3.39
2019-03-20T02:15:14.084Z,3.38
2019-03-20T02:16:22.036Z,3.25
2019-03-20T02:17:30.022Z,3.25
2019-03-20T02:18:38.158Z,3.28
2019-03-20T02:19:46.132Z,3.28
2019-03-20T02:20:54.584Z,3.36
2019-03-20T02:22:02.399Z,3.40
2019-03-20T02:23:10.398Z,3.43
2019-03-20T02:24:19.022Z,3.45
2019-03-20T02:25:27.048Z,3.49
2019-03-20T02:26:35.309Z,3.51
2019-03-20T02:27:43.406Z,3.49
2019-03-20T02:28:51.407Z,3.34
2019-03-20T02:29:59.602Z,3.28
2019-03-20T02:31:07.805Z,3.27
2019-03-20T02:32:15.835Z,3.16
2019-03-20T02:33:24.318Z,3.11
2019-03-20T02:34:32.397Z,3.06
2019-03-20T02:35:51.243Z,3.07
2019-03-20T02:36:50.245Z,3.13
2019-03-20T02:37:58.205Z,3.17
2019-03-20T02:39:08.290Z,3.08
2019-03-20T02:40:17.593Z,3.14
2019-03-20T02:41:25.487Z,3.16
2019-03-20T02:42:33.521Z,3.20
2019-03-20T02:43:41.616Z,3.20
2019-03-20T02:44:49.884Z,3.16
2019-03-20T02:45:57.895Z,3.10
2019-03-20T02:47:06.077Z,3.02
2019-03-20T02:48:14.092Z,3.04
2019-03-20T02:49:22.776Z,3.00
2019-03-20T02:50:30.975Z,3.00
2019-03-20T02:51:38.827Z,2.99
2019-03-20T02:52:46.617Z,3.02
2019-03-20T02:53:54.802Z,3.04
2019-03-20T02:55:02.854Z,3.01
2019-03-20T02:56:11.502Z,2.92
2019-03-20T02:57:20.052Z,2.89
2019-03-20T02:58:28.373Z,2.80
2019-03-20T02:59:36.296Z,2.78
2019-03-20T03:00:44.478Z,2.80
2019-03-20T03:01:52.771Z,2.80
2019-03-20T03:03:00.866Z,2.76
2019-03-20T03:04:09.249Z,2.80
2019-03-20T03:05:17.790Z,2.87
2019-03-20T03:06:25.996Z,2.86
2019-03-20T03:07:34.430Z,2.81
2019-03-20T03:08:42.440Z,2.83
2019-03-20T03:09:50.466Z,2.80
2019-03-20T03:10:58.541Z,2.74
2019-03-20T03:12:06.783Z,2.81
2019-03-20T03:13:15.078Z,2.80
2019-03-20T03:14:23.019Z,2.70
2019-03-20T03:15:31.348Z,2.70
2019-03-20T03:16:39.219Z,2.70
2019-03-20T03:17:47.160Z,2.61
2019-03-20T03:18:55.255Z,2.52
2019-03-20T03:20:03.763Z,2.53
2019-03-20T03:21:11.901Z,2.58
2019-03-20T03:22:20.069Z,2.58
2019-03-20T03:23:28.372Z,2.64
2019-03-20T03:24:36.867Z,2.58
2019-03-20T03:25:45.060Z,2.61
2019-03-20T03:26:55.628Z,2.59
2019-03-20T03:28:03.707Z,2.59
2019-03-20T03:29:11.691Z,2.61
2019-03-20T03:30:20.435Z,2.63
2019-03-20T03:31:29.132Z,2.66
2019-03-20T03:32:37.293Z,2.70
2019-03-20T03:33:45.523Z,2.73
2019-03-20T03:34:53.316Z,2.77
2019-03-20T03:36:02.025Z,2.80
2019-03-20T03:37:10.128Z,2.80
2019-03-20T03:38:18.235Z,2.82
2019-03-20T03:39:26.539Z,2.80
2019-03-20T03:40:34.580Z,2.82
2019-03-20T03:41:42.618Z,2.81
2019-03-20T03:42:50.704Z,2.83
2019-03-20T03:43:58.920Z,2.83
2019-03-20T03:45:11.343Z,2.82
2019-03-20T03:46:19.508Z,2.83
2019-03-20T03:47:27.830Z,2.75
2019-03-20T03:48:36.026Z,2.76
2019-03-20T03:49:44.108Z,2.79
2019-03-20T03:50:52.290Z,2.82
2019-03-20T03:52:00.355Z,2.84
2019-03-20T03:53:08.501Z,2.85
2019-03-20T03:54:16.578Z,2.76
2019-03-20T03:55:24.819Z,2.68
2019-03-20T03:56:32.786Z,2.60
2019-03-20T03:57:41.150Z,2.42
2019-03-20T03:58:49.084Z,2.46
2019-03-20T03:59:57.290Z,2.51
2019-03-20T04:01:05.495Z,2.46
2019-03-20T04:02:13.418Z,2.51
2019-03-20T04:03:23.941Z,2.49
2019-03-20T04:04:32.136Z,2.53
2019-03-20T04:05:40.432Z,2.52
2019-03-20T04:06:48.946Z,2.55
2019-03-20T04:07:57.646Z,2.36
2019-03-20T04:09:08.107Z,2.38
2019-03-20T04:10:17.953Z,2.38
2019-03-20T04:11:26.292Z,2.38
2019-03-20T04:12:34.229Z,2.31
2019-03-20T04:13:43.193Z,2.32
2019-03-20T04:14:51.193Z,2.25
2019-03-20T04:15:59.398Z,2.23
2019-03-20T04:17:22.284Z,2.27
2019-03-20T04:18:30.802Z,2.19
2019-03-20T04:19:39.000Z,2.13
2019-03-20T04:20:47.085Z,2.02
2019-03-20T04:21:54.976Z,1.97
2019-03-20T04:23:02.998Z,1.94
2019-03-20T04:24:11.269Z,1.93
2019-03-20T04:25:19.886Z,1.99
2019-03-20T04:26:28.065Z,1.90
2019-03-20T04:27:35.935Z,1.94
2019-03-20T04:28:43.977Z,1.98
2019-03-20T04:29:51.869Z,1.94
2019-03-20T04:30:59.867Z,1.84
2019-03-20T04:32:07.900Z,1.84
2019-03-20T04:33:16.209Z,1.86
2019-03-20T04:34:24.452Z,1.77
2019-03-20T04:35:32.463Z,1.78
2019-03-20T04:36:47.723Z,1.83
2019-03-20T04:37:50.605Z,1.77
2019-03-20T04:38:58.423Z,1.83
2019-03-20T04:40:16.619Z,1.75
2019-03-20T04:41:24.638Z,1.75
2019-03-20T04:42:33.023Z,1.75
2019-03-20T04:43:41.125Z,1.77
2019-03-20T04:44:49.171Z,1.74
2019-03-20T04:45:57.358Z,1.73
2019-03-20T04:47:05.455Z,1.75
2019-03-20T04:48:13.618Z,1.70
2019-03-20T04:49:22.000Z,1.73
2019-03-20T04:50:30.305Z,1.79
2019-03-20T04:51:38.458Z,1.74
2019-03-20T04:52:46.507Z,1.72
2019-03-20T04:53:54.553Z,1.73
2019-03-20T04:55:02.572Z,1.77
2019-03-20T04:56:10.691Z,1.85
2019-03-20T04:57:19.195Z,1.83
2019-03-20T04:58:27.376Z,1.85
2019-03-20T04:59:35.325Z,1.92
2019-03-20T05:00:43.504Z,1.97
2019-03-20T05:01:51.570Z,2.04
2019-03-20T05:03:01.063Z,2.05
2019-03-20T05:04:09.472Z,2.07
2019-03-20T05:05:17.827Z,2.12
2019-03-20T05:06:25.923Z,2.14
2019-03-20T05:07:34.180Z,2.17
2019-03-20T05:08:42.317Z,2.20
2019-03-20T05:09:50.414Z,2.22
2019-03-20T05:10:58.402Z,2.25
2019-03-20T05:12:06.512Z,2.27
2019-03-20T05:13:14.687Z,2.29
2019-03-20T05:14:22.979Z,2.31
2019-03-20T05:15:31.176Z,2.33
2019-03-20T05:16:39.308Z,2.13
2019-03-20T05:17:47.293Z,2.17
2019-03-20T05:18:55.258Z,2.19
2019-03-20T05:20:03.400Z,2.22
2019-03-20T05:21:11.588Z,2.27
2019-03-20T05:22:19.584Z,2.27
2019-03-20T05:23:27.964Z,2.31
2019-03-20T05:24:36.565Z,2.34
2019-03-20T05:25:44.480Z,2.37
2019-03-20T05:26:52.592Z,2.40
2019-03-20T05:28:00.764Z,2.29
2019-03-20T05:29:08.757Z,2.33
2019-03-20T05:30:17.653Z,2.39
2019-03-20T05:31:26.201Z,2.46
2019-03-20T05:32:34.820Z,2.51
2019-03-20T05:33:42.894Z,2.56
2019-03-20T05:34:50.703Z,2.61
2019-03-20T05:35:58.914Z,2.59
2019-03-20T05:37:10.680Z,2.59
2019-03-20T05:38:17.451Z,2.58
2019-03-20T05:39:25.856Z,2.64
2019-03-20T05:40:34.216Z,2.91
2019-03-20T05:41:42.346Z,3.06
2019-03-20T05:42:50.836Z,3.20
2019-03-20T05:43:59.269Z,3.26
2019-03-20T05:45:11.381Z,3.27
2019-03-20T05:46:19.445Z,3.32
2019-03-20T05:47:27.632Z,3.33
2019-03-20T05:48:35.557Z,3.37
2019-03-20T05:49:44.663Z,3.35
2019-03-20T05:50:52.759Z,3.38
2019-03-20T05:52:00.851Z,3.40
2019-03-20T05:53:08.933Z,3.41
2019-03-20T05:54:16.858Z,3.43
2019-03-20T05:55:24.836Z,3.41
2019-03-20T05:56:33.544Z,3.41
2019-03-20T05:57:41.847Z,3.44
2019-03-20T05:58:50.144Z,3.45
2019-03-20T05:59:58.511Z,3.48
2019-03-20T06:01:06.731Z,3.48
2019-03-20T06:02:14.976Z,3.49
2019-03-20T06:03:23.154Z,3.49
2019-03-20T06:04:31.235Z,3.51
2019-03-20T06:05:40.414Z,3.57
2019-03-20T06:06:48.437Z,3.59
2019-03-20T06:07:56.769Z,3.60
2019-03-20T06:09:06.269Z,3.62
2019-03-20T06:10:17.135Z,3.65
2019-03-20T06:11:25.260Z,3.62
2019-03-20T06:12:34.464Z,3.64
2019-03-20T06:13:42.595Z,3.68
2019-03-20T06:14:52.058Z,3.72
2019-03-20T06:16:00.125Z,3.76
2019-03-20T06:17:08.329Z,3.79
2019-03-20T06:18:16.623Z,3.72
2019-03-20T06:19:24.811Z,3.71
2019-03-20T06:20:33.906Z,3.72
2019-03-20T06:21:42.129Z,3.71
2019-03-20T06:22:50.144Z,3.75
2019-03-20T06:23:58.639Z,3.76
2019-03-20T06:25:09.796Z,3.82
2019-03-20T06:26:18.224Z,3.84
2019-03-20T06:27:26.400Z,3.87
2019-03-20T06:28:35.086Z,3.90
2019-03-20T06:29:43.414Z,3.95
2019-03-20T06:30:51.521Z,4.01
2019-03-20T06:31:59.414Z,4.08
2019-03-20T06:33:07.806Z,4.12
2019-03-20T06:34:16.114Z,4.11
2019-03-20T06:35:24.422Z,4.11
2019-03-20T06:36:32.484Z,4.07
2019-03-20T06:37:40.765Z,4.09
2019-03-20T06:38:49.185Z,4.11
2019-03-20T06:39:57.309Z,4.20
2019-03-20T06:41:06.027Z,4.23
2019-03-20T06:42:14.410Z,4.31
2019-03-20T06:43:22.485Z,4.36
2019-03-20T06:44:30.940Z,4.41
2019-03-20T06:45:39.757Z,4.45
2019-03-20T06:46:48.237Z,4.49
2019-03-20T06:47:56.483Z,4.53
2019-03-20T06:49:04.954Z,4.58
2019-03-20T06:50:15.945Z,4.64
2019-03-20T06:51:24.084Z,4.67
2019-03-20T06:52:32.106Z,4.72
2019-03-20T06:53:40.631Z,4.73
2019-03-20T06:54:48.679Z,4.79
2019-03-20T06:55:56.638Z,4.84
2019-03-20T06:57:04.825Z,4.89
2019-03-20T06:58:13.193Z,4.89
2019-03-20T06:59:31.407Z,4.93
2019-03-20T07:00:52.532Z,4.96
2019-03-20T07:02:05.359Z,5.02
2019-03-20T07:03:39.207Z,5.11
2019-03-20T07:05:17.048Z,5.18
2019-03-20T07:06:50.903Z,5.23
2019-03-20T07:07:58.673Z,5.23
2019-03-20T07:09:22.798Z,5.29
2019-03-20T07:11:00.764Z,5.33
2019-03-20T07:12:09.111Z,5.37
2019-03-20T07:13:17.541Z,5.47
2019-03-20T07:14:25.544Z,5.53
2019-03-20T07:15:33.631Z,5.59
2019-03-20T07:16:41.749Z,5.65
2019-03-20T07:17:50.008Z,5.71
2019-03-20T07:18:58.061Z,5.76
2019-03-20T07:20:10.398Z,5.82
2019-03-20T07:21:18.850Z,5.90
2019-03-20T07:22:27.017Z,5.93
2019-03-20T07:23:35.426Z,5.99
2019-03-20T07:24:43.488Z,6.03
2019-03-20T07:25:51.582Z,6.11
2019-03-20T07:26:59.827Z,6.17
2019-03-20T07:28:08.205Z,6.20
2019-03-20T07:29:16.469Z,6.21
2019-03-20T07:30:24.604Z,6.23
2019-03-20T07:31:32.825Z,6.25
2019-03-20T07:32:40.969Z,6.29
2019-03-20T07:33:49.079Z,6.34
2019-03-20T07:34:57.415Z,6.42
2019-03-20T07:36:05.526Z,6.46
2019-03-20T07:37:14.536Z,6.48
2019-03-20T07:38:22.501Z,6.53
2019-03-20T07:39:30.707Z,6.59
2019-03-20T07:40:38.942Z,6.65
2019-03-20T07:41:47.133Z,6.74
2019-03-20T07:42:55.159Z,6.82
2019-03-20T07:44:03.059Z,6.88
2019-03-20T07:45:11.970Z,6.95
2019-03-20T07:46:19.964Z,7.01
2019-03-20T07:47:28.240Z,7.08
2019-03-20T07:48:36.482Z,7.13
2019-03-20T07:49:44.534Z,7.21
2019-03-20T07:50:52.690Z,7.27
2019-03-20T07:52:00.778Z,7.33
2019-03-20T07:53:08.932Z,7.36
2019-03-20T07:54:16.883Z,7.39
2019-03-20T07:55:25.156Z,7.39
2019-03-20T07:56:33.501Z,7.46
2019-03-20T07:57:41.703Z,7.49
2019-03-20T07:58:49.783Z,7.55
2019-03-20T07:59:57.773Z,7.60
2019-03-20T08:01:06.048Z,7.63
2019-03-20T08:02:14.795Z,7.63
2019-03-20T08:03:22.763Z,7.62
2019-03-20T08:04:30.879Z,7.66
2019-03-20T08:05:38.786Z,7.68
2019-03-20T08:06:47.011Z,7.73
2019-03-20T08:08:06.429Z,7.77
2019-03-20T08:09:07.272Z,7.83
2019-03-20T08:10:18.662Z,7.90
2019-03-20T08:11:26.592Z,7.95
2019-03-20T08:12:34.546Z,8.03
2019-03-20T08:13:43.039Z,8.10
2019-03-20T08:14:50.882Z,8.14
2019-03-20T08:15:58.943Z,8.21
2019-03-20T08:17:07.031Z,8.27
2019-03-20T08:18:15.236Z,8.34
2019-03-20T08:19:23.428Z,8.42
2019-03-20T08:20:32.457Z,8.50
2019-03-20T08:21:40.441Z,8.60
2019-03-20T08:22:48.441Z,8.66
2019-03-20T08:23:56.640Z,8.70
2019-03-20T08:25:06.524Z,8.77
2019-03-20T08:26:14.625Z,8.82
2019-03-20T08:27:22.662Z,8.89
2019-03-20T08:28:30.886Z,8.94
2019-03-20T08:29:38.911Z,8.96
2019-03-20T08:30:46.961Z,8.99
2019-03-20T08:31:55.184Z,9.07
2019-03-20T08:33:03.480Z,9.10
2019-03-20T08:34:11.580Z,9.13
2019-03-20T08:35:19.814Z,9.15
2019-03-20T08:36:27.955Z,9.19
2019-03-20T08:37:36.260Z,9.24
2019-03-20T08:38:44.561Z,9.32
2019-03-20T08:39:52.861Z,9.38
2019-03-20T08:41:01.023Z,9.46
2019-03-20T08:42:09.475Z,9.51
2019-03-20T08:43:18.073Z,9.57
2019-03-20T08:44:26.425Z,9.63
2019-03-20T08:45:34.685Z,9.65
2019-03-20T08:46:43.080Z,9.71
2019-03-20T08:47:51.233Z,9.78
2019-03-20T08:48:59.286Z,9.81
2019-03-20T08:50:12.134Z,9.88
2019-03-20T08:51:20.088Z,9.93
2019-03-20T08:52:28.632Z,10.00
2019-03-20T08:53:37.308Z,10.04
2019-03-20T08:54:45.292Z,10.07
2019-03-20T08:55:53.430Z,10.13
2019-03-20T08:57:02.325Z,10.19
2019-03-20T08:58:10.936Z,10.26
2019-03-20T08:59:18.923Z,10.33
2019-03-20T09:00:27.366Z,10.40
2019-03-20T09:01:35.514Z,10.48
2019-03-20T09:02:43.757Z,10.54
2019-03-20T09:03:52.011Z,10.61
2019-03-20T09:05:00.530Z,10.67
2019-03-20T09:06:08.592Z,10.59
2019-03-20T09:07:17.010Z,10.60
2019-03-20T09:08:29.255Z,10.65
2019-03-20T09:09:34.797Z,10.71
2019-03-20T09:10:43.252Z,10.78
2019-03-20T09:11:51.444Z,10.85
2019-03-20T09:12:59.493Z,10.90
2019-03-20T09:14:07.538Z,10.90
2019-03-20T09:15:19.988Z,10.93
2019-03-20T09:16:27.865Z,10.95
2019-03-20T09:17:36.191Z,11.01
2019-03-20T09:18:44.443Z,11.10
2019-03-20T09:19:52.457Z,11.15
2019-03-20T09:21:00.782Z,11.20
2019-03-20T09:22:08.823Z,11.21
2019-03-20T09:23:17.033Z,11.23
2019-03-20T09:24:25.233Z,11.23
2019-03-20T09:25:33.358Z,11.26
2019-03-20T09:26:41.530Z,11.26
2019-03-20T09:27:49.730Z,11.21
2019-03-20T09:28:57.578Z,11.27
2019-03-20T09:30:09.390Z,11.30
2019-03-20T09:31:17.798Z,11.26
2019-03-20T09:32:26.205Z,11.23
2019-03-20T09:33:34.408Z,11.28
2019-03-20T09:34:42.418Z,11.36
2019-03-20T09:35:50.403Z,11.47
2019-03-20T09:36:58.582Z,11.56
2019-03-20T09:38:06.983Z,11.66
2019-03-20T09:39:15.038Z,11.73
2019-03-20T09:40:24.850Z,11.80
2019-03-20T09:41:32.859Z,11.90
2019-03-20T09:42:41.276Z,11.97
2019-03-20T09:43:49.646Z,12.07
2019-03-20T09:44:57.908Z,12.19
2019-03-20T09:46:06.157Z,12.28
2019-03-20T09:47:14.414Z,12.38
2019-03-20T09:48:22.721Z,12.48
2019-03-20T09:49:31.132Z,12.59
2019-03-20T09:50:39.158Z,12.68
2019-03-20T09:51:47.419Z,12.76
2019-03-20T09:52:55.545Z,12.85
2019-03-20T09:54:03.731Z,12.90
2019-03-20T09:55:16.801Z,12.95
2019-03-20T09:56:25.210Z,13.02
2019-03-20T09:57:33.344Z,13.11
2019-03-20T09:58:41.547Z,13.22
2019-03-20T09:59:49.753Z,13.33
2019-03-20T10:00:58.158Z,13.41
2019-03-20T10:02:06.218Z,13.44
2019-03-20T10:03:14.301Z,13.47
2019-03-20T10:04:22.461Z,13.41
2019-03-20T10:05:30.861Z,13.38
2019-03-20T10:06:39.146Z,13.27
2019-03-20T10:07:47.683Z,13.19
2019-03-20T10:08:55.862Z,13.16
2019-03-20T10:10:05.442Z,13.22
2019-03-20T10:11:13.519Z,13.29
2019-03-20T10:12:21.679Z,13.35
2019-03-20T10:13:29.887Z,13.44
2019-03-20T10:14:38.191Z,13.52
2019-03-20T10:15:46.268Z,13.52
2019-03-20T10:16:54.232Z,13.35
2019-03-20T10:18:02.591Z,13.19
2019-03-20T10:19:11.208Z,13.22
2019-03-20T10:20:21.247Z,13.31
2019-03-20T10:21:29.255Z,13.40
2019-03-20T10:22:39.008Z,13.46
2019-03-20T10:23:47.322Z,13.59
2019-03-20T10:24:55.629Z,13.72
2019-03-20T10:26:03.762Z,13.89
2019-03-20T10:27:12.099Z,13.88
2019-03-20T10:28:20.215Z,13.91
2019-03-20T10:29:28.224Z,14.02
2019-03-20T10:30:36.667Z,14.17
2019-03-20T10:31:45.059Z,14.28
2019-03-20T10:32:53.270Z,14.30
2019-03-20T10:34:01.262Z,14.39
2019-03-20T10:35:10.612Z,14.47
2019-03-20T10:36:18.811Z,14.58
2019-03-20T10:37:26.966Z,14.72
2019-03-20T10:38:35.072Z,14.85
2019-03-20T10:39:43.360Z,14.97
2019-03-20T10:40:51.738Z,15.12
2019-03-20T10:42:01.483Z,15.27
2019-03-20T10:43:09.732Z,15.44
2019-03-20T10:44:17.996Z,15.64
2019-03-20T10:45:25.910Z,15.87
2019-03-20T10:46:34.101Z,16.06
2019-03-20T10:47:42.514Z,16.22
2019-03-20T10:48:50.913Z,16.43
2019-03-20T10:49:59.128Z,16.62
2019-03-20T10:51:07.166Z,16.81
2019-03-20T10:52:15.432Z,17.04
2019-03-20T10:53:23.528Z,17.26
2019-03-20T10:54:31.826Z,17.46
2019-03-20T10:55:40.029Z,17.60
2019-03-20T10:56:48.215Z,17.75
2019-03-20T10:57:56.273Z,17.89
2019-03-20T10:59:04.415Z,18.03
2019-03-20T11:00:24.594Z,18.11
2019-03-20T11:01:42.040Z,18.22
2019-03-20T11:02:42.648Z,18.29
2019-03-20T11:03:50.831Z,18.31
2019-03-20T11:04:58.818Z,18.17
2019-03-20T11:06:06.865Z,17.99
2019-03-20T11:07:15.126Z,17.78
2019-03-20T11:08:23.230Z,17.58
2019-03-20T11:09:31.125Z,17.39
2019-03-20T11:10:39.595Z,17.20
2019-03-20T11:11:47.664Z,17.07
2019-03-20T11:12:56.385Z,16.94
2019-03-20T11:14:04.614Z,16.75
2019-03-20T11:15:16.301Z,16.59
2019-03-20T11:16:24.705Z,16.42
2019-03-20T11:17:32.813Z,16.27
2019-03-20T11:18:40.989Z,16.08
2019-03-20T11:19:49.233Z,15.87
2019-03-20T11:20:57.369Z,15.75
2019-03-20T11:22:05.820Z,15.62
2019-03-20T11:23:13.951Z,15.55
2019-03-20T11:24:21.859Z,15.45
2019-03-20T11:25:30.745Z,15.40
2019-03-20T11:26:38.842Z,15.33
2019-03-20T11:27:47.088Z,15.25
2019-03-20T11:28:55.192Z,15.13
2019-03-20T11:30:03.506Z,15.03
2019-03-20T11:31:11.599Z,14.93
2019-03-20T11:32:19.456Z,14.88
2019-03-20T11:33:27.694Z,14.85
2019-03-20T11:34:36.099Z,14.81
2019-03-20T11:35:44.195Z,14.77
2019-03-20T11:36:52.476Z,14.72
2019-03-20T11:38:00.514Z,14.69
2019-03-20T11:39:10.566Z,14.66
2019-03-20T11:40:24.958Z,14.65
2019-03-20T11:41:33.107Z,14.62
2019-03-20T11:42:41.274Z,14.58
2019-03-20T11:43:49.273Z,14.56
2019-03-20T11:44:57.489Z,14.55
2019-03-20T11:46:05.694Z,14.54
2019-03-20T11:47:14.169Z,14.54
2019-03-20T11:48:22.309Z,14.53
2019-03-20T11:49:30.679Z,14.53
2019-03-20T11:50:44.667Z,14.48
2019-03-20T11:51:52.905Z,14.47
2019-03-20T11:53:01.235Z,14.48
2019-03-20T11:54:09.437Z,14.54
2019-03-20T11:55:17.719Z,14.64
2019-03-20T11:56:26.650Z,14.72
2019-03-20T11:57:34.834Z,14.82
2019-03-20T11:58:42.930Z,14.83
2019-03-20T11:59:51.210Z,14.83
2019-03-20T12:00:59.307Z,14.94
2019-03-20T12:02:07.826Z,15.04
2019-03-20T12:03:16.034Z,14.90
2019-03-20T12:04:24.130Z,15.11
2019-03-20T12:05:32.326Z,15.41
2019-03-20T12:06:40.479Z,15.74
2019-03-20T12:07:48.825Z,16.03
2019-03-20T12:08:56.821Z,16.29
2019-03-20T12:10:08.044Z,16.49
2019-03-20T12:11:16.188Z,16.73
2019-03-20T12:12:24.304Z,16.97
2019-03-20T12:13:32.404Z,17.24
2019-03-20T12:14:40.423Z,17.48
2019-03-20T12:15:48.702Z,17.72
2019-03-20T12:16:56.922Z,17.91
2019-03-20T12:18:05.198Z,18.09
2019-03-20T12:19:13.485Z,18.20
2019-03-20T12:20:27.983Z,18.13
2019-03-20T12:21:36.153Z,18.04
2019-03-20T12:22:44.726Z,17.91
2019-03-20T12:23:52.783Z,17.79
2019-03-20T12:25:00.903Z,17.73
2019-03-20T12:26:08.940Z,17.64
2019-03-20T12:27:17.251Z,17.60
2019-03-20T12:28:25.463Z,17.56
2019-03-20T12:29:33.844Z,17.58
2019-03-20T12:30:42.090Z,17.72
2019-03-20T12:31:50.745Z,17.81
2019-03-20T12:32:58.900Z,17.84
2019-03-20T12:34:07.064Z,17.81
2019-03-20T12:35:18.276Z,17.83
2019-03-20T12:36:26.568Z,17.99
2019-03-20T12:37:35.111Z,18.13
2019-03-20T12:38:43.339Z,18.15
2019-03-20T12:39:53.368Z,18.10
2019-03-20T12:41:01.393Z,18.02
2019-03-20T12:42:09.775Z,17.90
2019-03-20T12:43:18.262Z,17.76
2019-03-20T12:44:26.510Z,17.59
2019-03-20T12:45:36.780Z,17.42
2019-03-20T12:46:45.127Z,17.29
2019-03-20T12:47:53.274Z,17.13
2019-03-20T12:49:01.271Z,16.96
2019-03-20T12:50:12.979Z,16.84
2019-03-20T12:51:21.096Z,16.71
2019-03-20T12:52:29.500Z,16.60
2019-03-20T12:53:38.008Z,16.51
2019-03-20T12:54:46.116Z,16.44
2019-03-20T12:55:54.877Z,16.38
2019-03-20T12:57:03.333Z,16.31
2019-03-20T12:58:11.671Z,16.26
2019-03-20T12:59:20.029Z,16.21
2019-03-20T13:00:28.943Z,16.17
2019-03-20T13:01:37.248Z,16.11
2019-03-20T13:02:45.568Z,16.06
2019-03-20T13:03:54.177Z,16.05
2019-03-20T13:05:02.361Z,16.03
2019-03-20T13:06:10.460Z,16.01
2019-03-20T13:07:18.854Z,15.99
2019-03-20T13:08:27.230Z,15.96
2019-03-20T13:09:35.358Z,15.90
2019-03-20T13:10:43.573Z,15.87
2019-03-20T13:11:52.154Z,15.83
2019-03-20T13:13:00.234Z,15.78
2019-03-20T13:14:08.618Z,15.72
2019-03-20T13:15:20.013Z,15.63
2019-03-20T13:16:28.235Z,15.58
2019-03-20T13:17:36.253Z,15.54
2019-03-20T13:18:44.533Z,15.48
2019-03-20T13:19:52.946Z,15.41
2019-03-20T13:21:01.271Z,15.34
2019-03-20T13:22:09.558Z,15.28
2019-03-20T13:23:38.472Z,15.27
2019-03-20T13:24:46.732Z,15.26
2019-03-20T13:25:54.927Z,15.24
2019-03-20T13:27:02.904Z,15.24
2019-03-20T13:28:11.223Z,15.20
2019-03-20T13:29:19.510Z,15.22
2019-03-20T13:30:40.888Z,15.24
2019-03-20T13:31:48.931Z,15.27
2019-03-20T13:32:57.357Z,15.33
2019-03-20T13:34:05.753Z,15.38
2019-03-20T13:35:13.737Z,15.44
2019-03-20T13:36:21.872Z,15.40
2019-03-20T13:37:30.032Z,15.38
2019-03-20T13:38:38.332Z,15.36
2019-03-20T13:39:46.814Z,15.34
2019-03-20T13:40:55.019Z,15.36
2019-03-20T13:42:03.317Z,15.35
2019-03-20T13:43:11.392Z,15.32
2019-03-20T13:44:19.884Z,15.29
2019-03-20T13:45:30.202Z,15.26
2019-03-20T13:46:38.492Z,15.23
2019-03-20T13:47:46.603Z,15.21
2019-03-20T13:48:55.303Z,15.16
2019-03-20T13:50:03.447Z,15.10
2019-03-20T13:51:11.472Z,15.06
2019-03-20T13:52:19.809Z,15.01
2019-03-20T13:53:27.726Z,14.96
2019-03-20T13:54:36.112Z,14.91
2019-03-20T13:55:44.296Z,14.90
2019-03-20T13:56:52.700Z,14.86
2019-03-20T13:58:00.990Z,14.84
2019-03-20T13:59:08.975Z,14.83
2019-03-20T14:00:25.808Z,14.80
2019-03-20T14:01:33.862Z,14.77
2019-03-20T14:02:41.889Z,14.74
2019-03-20T14:03:49.973Z,14.74
2019-03-20T14:04:58.589Z,14.74
2019-03-20T14:06:07.020Z,14.72
2019-03-20T14:07:14.854Z,14.71
2019-03-20T14:08:22.977Z,14.69
2019-03-20T14:09:31.395Z,14.68
2019-03-20T14:10:49.450Z,14.65
2019-03-20T14:11:49.834Z,14.68
2019-03-20T14:12:58.351Z,14.69
2019-03-20T14:14:06.346Z,14.72
2019-03-20T14:15:17.296Z,14.73
2019-03-20T14:16:25.379Z,14.73
2019-03-20T14:17:33.902Z,14.72
2019-03-20T14:18:41.954Z,14.70
2019-03-20T14:19:50.305Z,14.64
2019-03-20T14:20:58.511Z,14.61
2019-03-20T14:22:06.696Z,14.58
2019-03-20T14:23:14.917Z,14.55
2019-03-20T14:24:23.018Z,14.51
2019-03-20T14:25:31.601Z,14.51
2019-03-20T14:26:40.403Z,14.49
2019-03-20T14:27:49.750Z,14.48
2019-03-20T14:28:58.351Z,14.47
2019-03-20T14:30:30.486Z,14.47
2019-03-20T14:31:38.832Z,14.46
2019-03-20T14:32:47.188Z,14.42
2019-03-20T14:33:55.531Z,14.41
2019-03-20T14:35:03.747Z,14.39
2019-03-20T14:36:12.595Z,14.38
2019-03-20T14:37:20.734Z,14.36
2019-03-20T14:38:29.026Z,14.34
2019-03-20T14:39:37.123Z,14.33
2019-03-20T14:40:45.337Z,14.32
2019-03-20T14:41:53.938Z,14.31
2019-03-20T14:43:02.199Z,14.31
2019-03-20T14:44:10.708Z,14.29
2019-03-20T14:45:19.582Z,14.27
2019-03-20T14:46:27.541Z,14.25
2019-03-20T14:47:42.085Z,14.23
2019-03-20T14:48:45.902Z,14.21
2019-03-20T14:49:54.526Z,14.19
2019-03-20T14:51:02.502Z,14.18
2019-03-20T14:52:10.811Z,14.18
2019-03-20T14:53:18.866Z,14.17
2019-03-20T14:54:27.103Z,14.15
2019-03-20T14:55:35.825Z,14.14
2019-03-20T14:56:44.396Z,14.14
2019-03-20T14:57:52.885Z,14.12
2019-03-20T14:59:01.429Z,14.07
2019-03-20T15:00:29.102Z,14.10
2019-03-20T15:01:37.296Z,14.03
2019-03-20T15:02:45.341Z,14.02